Terminal Aerodrome Forecast
Issued by NWS

Home | Current Version | Previous Version | Text Only | Print | Product List | Glossary On
Versions: 1 2 3 4 5 6 7 8 9 10 11 12 13 14 15
000
FTAK31 PAFA 192327
TAFAOM
TAF
PAOM 192327Z 2000/2024 30009KT P6SM VCSH FEW010 SCT040 BKN150
     FM201000 27005KT 4SM -SN BR SCT015 BKN040 OVC080
     FM201900 04008KT 2SM -SN BR SCT015 OVC040=

USA.gov is the U.S. government's official web portal to all federal, state and local government web resources and services.